Time;durP1;ratioP1;P1;durP2;ratioP2;P2;SDS_P1;SDS_P2;PMS_P1;PMS_P2;Temp;Humidity;BMP_temperature;BMP_pressure;BME280_temperature;BME280_humidity;BME280_pressure;Samples;Min_cycle;Max_cycle;Signal;HPM_P1;HPM_P2
2022/04/15 00:02:07;;;;;;;;;;;;;;;14.25;69.72;100573.56;5029090;28;19913;-90
2022/04/15 00:04:32;;;;;;;;;;;;;;;14.26;69.80;100577.09;5028507;28;19923;-90
2022/04/15 00:06:58;;;;;;;;;;;;;;;14.24;69.61;100569.16;5043667;28;19921;-90
2022/04/15 00:09:23;;;;;;;;;;;;;;;14.21;70.36;100566.78;5028324;28;20342;-90
2022/04/15 00:11:48;;;;;;;;;;;;;;;14.20;69.65;100569.63;5028492;28;19925;-90
2022/04/15 00:14:14;;;;;;;;;;;;;;;14.22;70.64;100567.63;5045088;28;19913;-90
2022/04/15 00:16:43;;;;;;;;;;;;;;;14.22;70.36;100562.25;5028122;28;19925;-89
2022/04/15 00:19:09;;;;;;;;;;;;;;;14.22;70.04;100563.09;5028118;28;19913;-90
2022/04/15 00:21:35;;;;;;;;;;;;;;;14.22;70.44;100560.41;5044568;28;19966;-90
2022/04/15 00:24:00;;;;;;;;;;;;;;;14.20;70.73;100558.84;5027909;28;19917;-90
2022/04/15 00:26:25;;;;;;;;;;;;;;;14.09;70.54;100568.75;5027643;28;19990;-90
2022/04/15 00:28:52;;;;;;;;;;;;;;;14.06;70.48;100566.38;5044770;28;19921;-90
2022/04/15 00:31:20;;;;;;;;;;;;;;;14.06;70.35;100563.69;5027873;28;20408;-90
2022/04/15 00:33:45;;;;;;;;;;;;;;;14.08;70.52;100575.13;5028035;28;19986;-90
2022/04/15 00:36:10;;;;;;;;;;;;;;;14.00;69.83;100568.78;5044688;28;19921;-90
2022/04/15 00:38:35;;;;;;;;;;;;;;;13.92;70.89;100576.72;5044164;28;20293;-90
2022/04/15 00:41:01;;;;;;;;;;;;;;;13.93;70.30;100565.84;5027922;28;20355;-90
2022/04/15 00:43:26;;;;;;;;;;;;;;;13.94;70.38;100575.59;5044697;28;19975;-90
2022/04/15 00:45:51;;;;;;;;;;;;;;;13.93;69.76;100568.53;5044586;28;19978;-90
2022/04/15 00:48:19;;;;;;;;;;;;;;;13.93;70.21;100571.22;5027372;28;19928;-90
2022/04/15 00:50:45;;;;;;;;;;;;;;;13.89;70.05;100577.88;5027484;28;19924;-90
2022/04/15 00:53:32;;;;;;;;;;;;;;;13.89;70.17;100579.72;5027473;28;19917;-90
2022/04/15 00:55:57;;;;;;;;;;;;;;;13.85;69.60;100580.00;5027546;28;19924;-90
2022/04/15 00:58:23;;;;;;;;;;;;;;;13.88;70.06;100584.25;5026871;28;19948;-90
2022/04/15 01:00:55;;;;;;;;;;;;;;;13.88;69.99;100573.50;5044025;28;19917;-90
2022/04/15 01:03:21;;;;;;;;;;;;;;;13.86;70.14;100578.16;5027233;28;20453;-90
2022/04/15 01:05:47;;;;;;;;;;;;;;;13.85;70.30;100580.00;5043286;28;19996;-90
2022/04/15 01:08:12;;;;;;;;;;;;;;;13.85;70.49;100581.84;5044193;28;20357;-90
2022/04/15 01:10:38;;;;;;;;;;;;;;;13.77;70.38;100577.19;5044162;28;19917;-90
2022/04/15 01:13:04;;;;;;;;;;;;;;;13.77;70.55;100577.19;5027615;28;20303;-90
2022/04/15 01:15:29;;;;;;;;;;;;;;;13.74;69.91;100577.47;5043705;28;19917;-90
2022/04/15 01:17:55;;;;;;;;;;;;;;;13.73;70.71;100577.63;5026617;28;19923;-90
2022/04/15 01:20:20;;;;;;;;;;;;;;;13.71;70.75;100585.78;5026786;28;19960;-90
2022/04/15 01:22:46;;;;;;;;;;;;;;;13.72;70.63;100589.34;5027854;28;19964;-90
2022/04/15 01:25:12;;;;;;;;;;;;;;;13.70;70.70;100589.47;5026854;28;19920;-90
2022/04/15 01:27:38;;;;;;;;;;;;;;;13.64;70.56;100589.19;5027015;28;19932;-90
2022/04/15 01:30:04;;;;;;;;;;;;;;;13.67;70.43;100586.22;5027415;28;19928;-90
2022/04/15 01:32:29;;;;;;;;;;;;;;;13.66;70.25;100588.06;5027106;28;20020;-90
2022/04/15 01:34:55;;;;;;;;;;;;;;;13.63;70.63;100585.66;5044137;28;20004;-90
2022/04/15 01:37:20;;;;;;;;;;;;;;;13.62;70.80;100589.34;5026934;28;20176;-90
2022/04/15 01:39:46;;;;;;;;;;;;;;;13.59;70.37;100580.72;5027147;28;20269;-90
2022/04/15 01:42:12;;;;;;;;;;;;;;;13.59;70.69;100594.16;5043827;28;19913;-90
2022/04/15 01:44:38;;;;;;;;;;;;;;;13.59;70.97;100583.41;5043955;28;19975;-90
2022/04/15 01:47:03;;;;;;;;;;;;;;;13.56;70.72;100581.84;5026555;28;19982;-90
2022/04/15 01:49:29;;;;;;;;;;;;;;;13.50;70.34;100594.00;5027274;28;19965;-90
2022/04/15 01:51:54;;;;;;;;;;;;;;;13.43;70.77;100600.09;5043762;28;20358;-90
2022/04/15 01:54:19;;;;;;;;;;;;;;;13.40;70.25;100595.84;5028363;28;19925;-90
2022/04/15 01:56:44;;;;;;;;;;;;;;;13.42;70.58;100595.69;5026983;28;19921;-90
2022/04/15 01:59:10;;;;;;;;;;;;;;;13.43;70.02;100605.47;5026883;28;19928;-90
2022/04/15 02:01:36;;;;;;;;;;;;;;;13.40;70.20;100597.69;5027177;28;19913;-90
2022/04/15 02:04:01;;;;;;;;;;;;;;;13.40;70.46;100609.28;5043560;28;19917;-90
2022/04/15 02:06:26;;;;;;;;;;;;;;;13.39;70.11;100609.41;5026489;28;19917;-90
2022/04/15 02:08:51;;;;;;;;;;;;;;;13.36;69.84;100607.88;5027602;28;19960;-90
2022/04/15 02:11:17;;;;;;;;;;;;;;;13.36;70.05;100607.00;5047251;28;20911;-89
2022/04/15 02:13:42;;;;;;;;;;;;;;;13.32;70.09;100609.13;5030662;28;19928;-90
2022/04/15 02:16:07;;;;;;;;;;;;;;;13.30;70.05;100612.94;5049373;28;19925;-90
2022/04/15 02:18:32;;;;;;;;;;;;;;;13.25;69.57;100607.16;5030547;28;19917;-89
2022/04/15 02:20:57;;;;;;;;;;;;;;;13.25;69.51;100607.16;5029744;28;19913;-90
2022/04/15 02:23:23;;;;;;;;;;;;;;;13.21;70.08;100612.75;5030028;28;19917;-90
2022/04/15 02:25:48;;;;;;;;;;;;;;;13.19;69.85;100612.06;5030150;28;19920;-90
2022/04/15 02:28:13;;;;;;;;;;;;;;;13.20;69.61;100618.28;5030085;28;19928;-90
2022/04/15 02:30:39;;;;;;;;;;;;;;;13.21;69.44;100611.91;5047039;28;19944;-90
2022/04/15 02:33:04;;;;;;;;;;;;;;;13.19;69.67;100609.38;5047042;28;19991;-90
2022/04/15 02:35:29;;;;;;;;;;;;;;;13.20;69.25;100607.53;5030132;28;20322;-90
2022/04/15 02:37:54;;;;;;;;;;;;;;;13.18;69.31;100613.03;5031268;28;20361;-90
2022/04/15 02:40:19;;;;;;;;;;;;;;;13.10;69.77;100612.00;5031481;28;20422;-90
2022/04/15 02:42:45;;;;;;;;;;;;;;;13.01;69.91;100613.69;5030185;28;19992;-90
2022/04/15 02:45:10;;;;;;;;;;;;;;;13.04;69.81;100609.88;5030037;28;19952;-90
2022/04/15 02:47:35;;;;;;;;;;;;;;;12.99;69.53;100615.66;5029788;28;19913;-90
2022/04/15 02:50:02;;;;;;;;;;;;;;;13.03;69.75;100616.22;5029915;28;19970;-90
2022/04/15 02:52:27;;;;;;;;;;;;;;;13.00;69.82;100611.13;5046704;28;19971;-90
2022/04/15 02:54:52;;;;;;;;;;;;;;;12.94;70.25;100615.22;5029795;28;19960;-90
2022/04/15 02:57:17;;;;;;;;;;;;;;;12.85;70.12;100616.03;5046514;28;20115;-90
2022/04/15 02:59:42;;;;;;;;;;;;;;;12.89;70.19;100614.78;5029697;28;20287;-90
2022/04/15 03:02:08;;;;;;;;;;;;;;;12.96;69.47;100617.78;5029720;28;20353;-90
2022/04/15 03:04:33;;;;;;;;;;;;;;;12.95;69.75;100614.22;5029477;28;19970;-90
2022/04/15 03:06:58;;;;;;;;;;;;;;;12.97;69.88;100619.47;5046145;28;19968;-90
2022/04/15 03:09:25;;;;;;;;;;;;;;;12.96;70.01;100623.13;5046474;28;20232;-90
2022/04/15 03:11:50;;;;;;;;;;;;;;;12.97;69.33;100625.69;5029560;28;19917;-89
2022/04/15 03:14:17;;;;;;;;;;;;;;;12.93;70.14;100622.44;5046097;28;20104;-90
2022/04/15 03:16:42;;;;;;;;;;;;;;;12.91;69.97;100621.72;5028736;28;19928;-90
2022/04/15 03:19:07;;;;;;;;;;;;;;;12.90;69.76;100625.38;5046124;28;19917;-90
2022/04/15 03:21:32;;;;;;;;;;;;;;;12.89;69.91;100621.00;5028926;28;20335;-90
2022/04/15 03:23:58;;;;;;;;;;;;;;;12.78;69.85;100626.47;5029448;28;19921;-89
2022/04/15 03:26:23;;;;;;;;;;;;;;;12.78;69.84;100621.09;5029126;28;19917;-90
2022/04/15 03:28:48;;;;;;;;;;;;;;;12.76;70.11;100625.72;5029272;28;19921;-90
2022/04/15 03:31:14;;;;;;;;;;;;;;;12.81;69.86;100620.84;5029290;28;19978;-90
2022/04/15 03:33:39;;;;;;;;;;;;;;;12.83;70.12;100618.88;5029306;28;19979;-90
2022/04/15 03:36:04;;;;;;;;;;;;;;;12.83;70.23;100620.69;5029369;28;19998;-89
2022/04/15 03:38:30;;;;;;;;;;;;;;;12.80;70.37;100623.66;5028817;28;19917;-90
2022/04/15 03:40:55;;;;;;;;;;;;;;;12.76;70.17;100625.72;5029221;28;19917;-90
2022/04/15 03:43:20;;;;;;;;;;;;;;;12.73;70.48;100620.63;5028756;28;19971;-90
2022/04/15 03:45:45;;;;;;;;;;;;;;;12.73;70.67;100617.09;5046076;28;20312;-89
2022/04/15 03:48:10;;;;;;;;;;;;;;;12.73;70.36;100622.47;5044913;28;19916;-90
2022/04/15 03:50:36;;;;;;;;;;;;;;;12.74;70.57;100618.81;5028897;28;19917;-89
2022/04/15 03:53:01;;;;;;;;;;;;;;;12.75;70.57;100620.50;5045688;28;19976;-90
2022/04/15 03:55:26;;;;;;;;;;;;;;;12.71;70.16;100619.06;5028510;28;19925;-89
2022/04/15 03:57:51;;;;;;;;;;;;;;;12.68;70.77;100622.03;5045036;28;19921;-90
2022/04/15 04:00:17;;;;;;;;;;;;;;;12.68;70.76;100624.72;5045671;28;19917;-90
2022/04/15 04:02:43;;;;;;;;;;;;;;;12.67;70.47;100621.19;5028334;28;19917;-90
2022/04/15 04:05:09;;;;;;;;;;;;;;;12.64;70.80;100617.91;5045350;28;19917;-90
2022/04/15 04:07:34;;;;;;;;;;;;;;;12.62;70.34;100634.16;5028335;28;20000;-90
2022/04/15 04:09:59;;;;;;;;;;;;;;;12.59;70.65;100626.38;5028491;28;20015;-90
2022/04/15 04:12:24;;;;;;;;;;;;;;;12.56;70.68;100626.63;5045261;28;19928;-90
2022/04/15 04:14:50;;;;;;;;;;;;;;;12.53;70.57;100627.75;5028290;28;20745;-90
2022/04/15 04:17:15;;;;;;;;;;;;;;;12.46;70.24;100623.06;5028410;28;20500;-90
2022/04/15 04:19:40;;;;;;;;;;;;;;;12.49;70.21;100622.81;5044301;28;19921;-90
2022/04/15 04:22:05;;;;;;;;;;;;;;;12.53;70.17;100626.91;5028314;28;19917;-90
2022/04/15 04:24:31;;;;;;;;;;;;;;;12.47;70.49;100619.41;5028340;28;19917;-90
2022/04/15 04:26:56;;;;;;;;;;;;;;;12.46;70.11;100626.59;5044719;28;19917;-90
2022/04/15 04:29:21;;;;;;;;;;;;;;;12.43;70.29;100629.56;5044621;28;20359;-90
2022/04/15 04:31:47;;;;;;;;;;;;;;;12.37;70.54;100630.09;5028469;28;20889;-90
2022/04/15 04:34:12;;;;;;;;;;;;;;;12.37;70.18;100626.56;5043876;28;19917;-89
2022/04/15 04:36:37;;;;;;;;;;;;;;;12.36;70.24;100640.94;5027796;28;19917;-89
2022/04/15 04:39:02;;;;;;;;;;;;;;;12.39;70.24;100636.16;5027922;28;19928;-90
2022/04/15 04:41:27;;;;;;;;;;;;;;;12.39;70.02;100629.94;5028502;28;20015;-89
2022/04/15 04:43:53;;;;;;;;;;;;;;;12.37;69.86;100646.19;5034338;28;19968;-89
2022/04/15 04:46:21;;;;;;;;;;;;;;;12.39;70.42;100641.53;5027550;28;20267;-90
2022/04/15 04:48:46;;;;;;;;;;;;;;;12.38;70.51;100650.56;5027569;28;19917;-90
2022/04/15 04:51:12;;;;;;;;;;;;;;;12.39;70.72;100659.47;5027950;28;19924;-89
2022/04/15 04:53:37;;;;;;;;;;;;;;;12.35;70.47;100650.81;5027806;28;19917;-90
2022/04/15 04:56:02;;;;;;;;;;;;;;;12.30;70.48;100658.41;5027721;28;20283;-89
2022/04/15 04:58:27;;;;;;;;;;;;;;;12.25;70.15;100663.28;5044276;28;19917;-90
2022/04/15 05:00:52;;;;;;;;;;;;;;;12.22;69.91;100664.41;5044678;28;19917;-89
2022/04/15 05:03:18;;;;;;;;;;;;;;;12.25;70.25;100668.66;5027687;28;19917;-89
2022/04/15 05:05:43;;;;;;;;;;;;;;;12.21;70.08;100673.44;5044394;28;19979;-90
2022/04/15 05:08:08;;;;;;;;;;;;;;;12.23;70.11;100676.84;5027131;28;20604;-90
2022/04/15 05:10:33;;;;;;;;;;;;;;;12.23;70.18;100686.72;5027620;28;19990;-90
2022/04/15 05:13:01;;;;;;;;;;;;;;;12.22;70.28;100683.19;5027470;28;20344;-90
2022/04/15 05:15:27;;;;;;;;;;;;;;;12.23;70.60;100681.34;5043315;28;20067;-90
2022/04/15 05:17:52;;;;;;;;;;;;;;;12.26;70.36;100678.41;5044252;28;20007;-90
2022/04/15 05:20:17;;;;;;;;;;;;;;;12.23;70.71;100692.94;5028314;28;19927;-90
2022/04/15 05:22:44;;;;;;;;;;;;;;;12.21;70.78;100694.88;5027465;28;19924;-89
2022/04/15 05:25:10;;;;;;;;;;;;;;;12.14;70.26;100696.38;5028489;28;19921;-90
2022/04/15 05:27:36;;;;;;;;;;;;;;;12.13;71.13;100694.69;5027402;28;19983;-89
2022/04/15 05:30:01;;;;;;;;;;;;;;;12.03;70.75;100699.13;5027755;28;20258;-89
2022/04/15 05:32:26;;;;;;;;;;;;;;;11.96;70.98;100701.47;5027717;28;20555;-90
2022/04/15 05:34:51;;;;;;;;;;;;;;;11.88;71.41;100703.09;5043826;28;20234;-89
2022/04/15 05:37:17;;;;;;;;;;;;;;;11.89;71.80;100705.66;5044193;28;20011;-89
2022/04/15 05:39:42;;;;;;;;;;;;;;;11.94;71.57;100705.28;5027179;28;19917;-90
2022/04/15 05:42:09;;;;;;;;;;;;;;;12.01;71.08;100693.06;5044291;28;20015;-89
2022/04/15 05:44:34;;;;;;;;;;;;;;;12.10;71.28;100702.16;5029450;28;19925;-90
2022/04/15 05:46:59;;;;;;;;;;;;;;;12.13;70.80;100702.72;5047520;28;20055;-90
2022/04/15 05:49:25;;;;;;;;;;;;;;;12.12;71.15;100717.13;5031044;28;19966;-90
2022/04/15 05:51:50;;;;;;;;;;;;;;;12.08;71.55;100710.31;5031051;28;20015;-89
2022/04/15 05:54:15;;;;;;;;;;;;;;;12.04;71.65;100716.06;5030532;28;20022;-89
2022/04/15 05:56:41;;;;;;;;;;;;;;;11.99;71.78;100721.81;5030505;28;19917;-89
2022/04/15 05:59:07;;;;;;;;;;;;;;;11.95;72.02;100721.22;5031988;28;19982;-90
2022/04/15 06:01:32;;;;;;;;;;;;;;;11.99;72.42;100727.19;5047846;28;19980;-89
2022/04/15 06:03:57;;;;;;;;;;;;;;;12.00;72.60;100730.72;5030725;28;19913;-89
2022/04/15 06:06:22;;;;;;;;;;;;;;;12.10;72.16;100732.50;5047702;28;20016;-89
2022/04/15 06:08:48;;;;;;;;;;;;;;;12.15;72.14;100732.09;5030739;28;20036;-89
2022/04/15 06:11:13;;;;;;;;;;;;;;;12.20;72.26;100728.03;5030867;28;20000;-90
2022/04/15 06:13:46;;;;;;;;;;;;;;;12.24;72.45;100725.97;5030871;28;19913;-90
2022/04/15 06:16:12;;;;;;;;;;;;;;;12.28;73.31;100736.28;5046190;28;19918;-90
2022/04/15 06:18:37;;;;;;;;;;;;;;;12.31;73.81;100729.84;5047094;28;19983;-90
2022/04/15 06:21:03;;;;;;;;;;;;;;;12.33;74.03;100738.63;5047108;28;19913;-89
2022/04/15 06:23:28;;;;;;;;;;;;;;;12.37;73.82;100744.56;5030415;28;19928;-89
2022/04/15 06:25:53;;;;;;;;;;;;;;;12.40;73.93;100745.16;5030436;28;19970;-89
2022/04/15 06:28:21;;;;;;;;;;;;;;;12.35;74.42;100752.75;5030070;28;19925;-90
2022/04/15 06:30:50;;;;;;;;;;;;;;;12.33;75.03;100754.72;5046608;28;20011;-90
2022/04/15 06:33:15;;;;;;;;;;;;;;;12.37;74.72;100757.97;5030607;28;19924;-90
2022/04/15 06:35:41;;;;;;;;;;;;;;;12.41;75.30;100759.44;5047091;28;19912;-90
2022/04/15 06:38:06;;;;;;;;;;;;;;;12.40;75.51;100768.44;5030200;28;20007;-90
2022/04/15 06:40:31;;;;;;;;;;;;;;;12.33;75.82;100760.06;5046826;28;19999;-90
2022/04/15 06:42:56;;;;;;;;;;;;;;;12.35;76.02;100768.00;5030578;28;19970;-90
2022/04/15 06:45:22;;;;;;;;;;;;;;;12.42;76.15;100766.50;5046837;28;19913;-90
2022/04/15 06:47:47;;;;;;;;;;;;;;;12.46;76.39;100767.94;5029828;28;19920;-90
2022/04/15 06:50:12;;;;;;;;;;;;;;;12.50;76.10;100778.28;5030101;28;20020;-89
2022/04/15 06:52:37;;;;;;;;;;;;;;;12.45;76.52;100777.81;5030068;28;20206;-89
2022/04/15 06:55:03;;;;;;;;;;;;;;;12.55;76.55;100775.19;5029507;28;19932;-90
2022/04/15 06:57:31;;;;;;;;;;;;;;;12.57;76.71;100776.75;5028646;28;19928;-89
2022/04/15 06:59:56;;;;;;;;;;;;;;;12.54;76.48;100777.03;5030197;28;19917;-89
2022/04/15 07:02:21;;;;;;;;;;;;;;;12.56;76.56;100784.94;5029752;28;19921;-89
2022/04/15 07:04:46;;;;;;;;;;;;;;;12.62;76.75;100779.06;5046726;28;19917;-89
2022/04/15 07:07:12;;;;;;;;;;;;;;;12.64;76.93;100787.81;5045920;28;19928;-90
2022/04/15 07:09:37;;;;;;;;;;;;;;;12.62;77.36;100784.41;5046446;28;19927;-90
2022/04/15 07:12:02;;;;;;;;;;;;;;;12.67;77.62;100787.56;5029791;28;19924;-90
2022/04/15 07:14:29;;;;;;;;;;;;;;;12.70;77.36;100792.66;5045983;28;19917;-89
2022/04/15 07:16:54;;;;;;;;;;;;;;;12.73;77.16;100789.72;5029380;28;19922;-89
2022/04/15 07:19:19;;;;;;;;;;;;;;;12.71;77.34;100785.47;5029512;28;19917;-90
2022/04/15 07:21:44;;;;;;;;;;;;;;;12.74;77.94;100795.94;5030810;28;19924;-89
2022/04/15 07:24:10;;;;;;;;;;;;;;;12.81;77.89;100794.47;5029677;28;19944;-90
2022/04/15 07:26:35;;;;;;;;;;;;;;;12.87;78.45;100791.25;5045885;28;20708;-90
2022/04/15 07:29:01;;;;;;;;;;;;;;;12.82;78.76;100799.69;5046451;28;19917;-89
2022/04/15 07:31:26;;;;;;;;;;;;;;;12.88;78.47;100798.31;5046678;28;19921;-89
2022/04/15 07:33:51;;;;;;;;;;;;;;;12.84;78.98;100802.25;5046358;28;19971;-89
2022/04/15 07:39:00;;;;;;;;;;;;;;;12.79;78.82;100805.31;5043518;28;19921;-89
2022/04/15 07:41:26;;;;;;;;;;;;;;;12.81;78.79;100807.88;5045691;28;19917;-89
2022/04/15 07:43:51;;;;;;;;;;;;;;;12.75;79.41;100806.53;5029139;28;19956;-90
2022/04/15 07:46:16;;;;;;;;;;;;;;;12.76;79.04;100807.38;5045668;28;20306;-90
2022/04/15 07:48:41;;;;;;;;;;;;;;;12.72;79.72;100814.84;5028889;28;20681;-89
2022/04/15 07:51:07;;;;;;;;;;;;;;;12.78;79.38;100810.81;5028959;28;19923;-89
2022/04/15 07:53:32;;;;;;;;;;;;;;;12.88;79.48;100809.91;5045668;28;19944;-89
2022/04/15 07:55:57;;;;;;;;;;;;;;;12.92;79.31;100808.66;5028231;28;19983;-89
2022/04/15 07:58:22;;;;;;;;;;;;;;;13.02;79.05;100814.09;5045335;28;19920;-89
2022/04/15 08:00:47;;;;;;;;;;;;;;;13.04;79.21;100817.47;5045294;28;19921;-89
2022/04/15 08:03:13;;;;;;;;;;;;;;;13.03;78.59;100822.97;5029829;28;19928;-89
2022/04/15 08:05:38;;;;;;;;;;;;;;;13.01;78.34;100827.63;5028440;28;19928;-89
2022/04/15 08:08:03;;;;;;;;;;;;;;;13.01;78.34;100825.81;5045049;28;20016;-89
2022/04/15 08:10:29;;;;;;;;;;;;;;;13.06;78.88;100826.25;5028696;28;20497;-89
2022/04/15 08:12:54;;;;;;;;;;;;;;;13.05;79.06;100834.44;5028823;28;19916;-90
2022/04/15 08:15:20;;;;;;;;;;;;;;;13.04;78.77;100830.06;5045565;28;19917;-89
2022/04/15 08:17:45;;;;;;;;;;;;;;;13.11;79.08;100836.59;5029430;28;20543;-89
2022/04/15 08:20:10;;;;;;;;;;;;;;;13.07;78.74;100832.47;5045492;28;20080;-89
2022/04/15 08:22:36;;;;;;;;;;;;;;;12.96;79.24;100833.41;5045103;28;19970;-89
2022/04/15 08:25:02;;;;;;;;;;;;;;;12.89;79.00;100832.22;5028681;28;19914;-89
2022/04/15 08:27:27;;;;;;;;;;;;;;;12.84;79.21;100829.94;5028673;28;20342;-89
2022/04/15 08:29:53;;;;;;;;;;;;;;;12.93;79.15;100833.66;5045231;28;19963;-89
2022/04/15 08:32:19;;;;;;;;;;;;;;;12.98;79.45;100831.44;5045307;28;19928;-89
2022/04/15 08:34:44;;;;;;;;;;;;;;;13.03;79.39;100839.09;5028265;28;20012;-89
2022/04/15 08:37:09;;;;;;;;;;;;;;;12.98;79.28;100831.44;5027945;28;19929;-89
2022/04/15 08:39:35;;;;;;;;;;;;;;;13.01;79.54;100841.06;5044734;28;19917;-89
2022/04/15 08:42:00;;;;;;;;;;;;;;;13.06;79.65;100845.06;5028406;28;19923;-90
2022/04/15 08:44:25;;;;;;;;;;;;;;;13.05;79.45;100845.19;5028190;28;19916;-89
2022/04/15 08:46:50;;;;;;;;;;;;;;;13.08;79.21;100845.78;5027961;28;19925;-89
2022/04/15 08:49:19;;;;;;;;;;;;;;;13.12;79.61;100851.72;5028013;28;19917;-89
2022/04/15 08:51:44;;;;;;;;;;;;;;;12.98;78.38;100860.13;5027558;28;19917;-90
2022/04/15 08:54:09;;;;;;;;;;;;;;;12.83;78.88;100855.09;5027972;28;20003;-89
2022/04/15 08:56:35;;;;;;;;;;;;;;;12.89;79.09;100869.81;5045194;28;19982;-89
2022/04/15 08:59:00;;;;;;;;;;;;;;;12.94;78.90;100864.91;5028488;28;19917;-90
2022/04/15 09:01:25;;;;;;;;;;;;;;;12.99;79.01;100865.34;5044943;28;19917;-90
2022/04/15 09:03:51;;;;;;;;;;;;;;;13.08;79.07;100872.63;5027771;28;19924;-89
2022/04/15 09:06:16;;;;;;;;;;;;;;;13.07;78.84;100878.97;5044460;28;19917;-89
2022/04/15 09:09:00;;;;;;;;;;;;;;;13.06;78.67;100885.34;5027521;28;19924;-89
2022/04/15 09:11:32;;;;;;;;;;;;;;;13.00;78.90;100882.31;5044153;28;20011;-89
2022/04/15 09:13:57;;;;;;;;;;;;;;;12.86;79.09;100883.50;5044250;28;19916;-89
2022/04/15 09:16:23;;;;;;;;;;;;;;;12.79;79.07;100891.22;5044606;28;19928;-89
2022/04/15 09:18:48;;;;;;;;;;;;;;;12.82;79.45;100898.16;5043614;28;20563;-89
2022/04/15 09:21:14;;;;;;;;;;;;;;;12.79;79.34;100901.97;5044253;28;20281;-89
2022/04/15 09:23:39;;;;;;;;;;;;;;;12.78;78.88;100900.25;5044229;28;20374;-89
2022/04/15 09:26:05;;;;;;;;;;;;;;;12.82;78.74;100904.38;5027989;28;19913;-93
2022/04/15 09:28:34;;;;;;;;;;;;;;;12.75;78.44;100902.31;5028050;28;19971;-91
2022/04/15 09:30:59;;;;;;;;;;;;;;;12.69;78.90;100905.50;5044274;28;20425;-91
2022/04/15 09:33:25;;;;;;;;;;;;;;;12.80;78.68;100902.81;5028570;28;20004;-91
2022/04/15 09:35:54;;;;;;;;;;;;;;;12.82;78.58;100912.44;5044037;28;20008;-91
2022/04/15 09:38:19;;;;;;;;;;;;;;;12.86;78.35;100908.50;5043985;28;20085;-91
2022/04/15 09:40:44;;;;;;;;;;;;;;;12.79;78.42;100911.84;5027470;28;19917;-92
2022/04/15 09:43:09;;;;;;;;;;;;;;;12.75;78.55;100913.06;5027577;28;19921;-91
2022/04/15 09:45:36;;;;;;;;;;;;;;;12.72;79.42;100916.00;5044746;28;19927;-92
2022/04/15 09:48:01;;;;;;;;;;;;;;;12.82;79.65;100917.81;5027182;28;19917;-91
2022/04/15 09:50:27;;;;;;;;;;;;;;;12.80;79.21;100913.53;5027754;28;20043;-91
2022/04/15 09:52:53;;;;;;;;;;;;;;;12.84;78.63;100909.63;5027372;28;20176;-91
2022/04/15 09:55:23;;;;;;;;;;;;;;;12.85;78.23;100916.69;5027297;28;19921;-91
2022/04/15 09:57:48;;;;;;;;;;;;;;;12.78;78.31;100923.56;5043421;28;19917;-91
2022/04/15 10:00:14;;;;;;;;;;;;;;;12.72;78.41;100919.53;5027612;28;19944;-91
2022/04/15 10:02:39;;;;;;;;;;;;;;;12.71;78.06;100923.19;5027531;28;19921;-91
2022/04/15 10:05:05;;;;;;;;;;;;;;;12.66;78.20;100922.72;5044243;28;20015;-91
2022/04/15 10:07:30;;;;;;;;;;;;;;;12.64;77.99;100924.69;5027335;28;20344;-91
2022/04/15 10:09:56;;;;;;;;;;;;;;;12.64;78.42;100916.63;5027491;28;20852;-91
2022/04/15 10:12:21;;;;;;;;;;;;;;;12.73;78.03;100921.22;5027604;28;19916;-91
2022/04/15 10:14:46;;;;;;;;;;;;;;;12.76;78.18;100923.66;5044103;28;19917;-91
2022/04/15 10:17:13;;;;;;;;;;;;;;;12.83;78.05;100924.03;5027105;28;19968;-91
2022/04/15 10:19:38;;;;;;;;;;;;;;;12.90;78.17;100922.53;5026956;28;19920;-91
2022/04/15 10:22:04;;;;;;;;;;;;;;;12.95;77.62;100914.09;5027134;28;19928;-91
2022/04/15 10:24:29;;;;;;;;;;;;;;;12.86;77.31;100911.19;5043645;28;19917;-91
2022/04/15 10:26:58;;;;;;;;;;;;;;;12.82;77.45;100916.94;5026944;28;19939;-91
2022/04/15 10:29:24;;;;;;;;;;;;;;;12.79;77.50;100917.22;5026736;28;19921;-91
2022/04/15 10:31:49;;;;;;;;;;;;;;;12.76;77.42;100920.97;5028353;28;19931;-91
2022/04/15 10:34:19;;;;;;;;;;;;;;;12.76;77.97;100923.66;5030628;28;19925;-91
2022/04/15 10:36:56;;;;;;;;;;;;;;;12.70;77.99;100924.16;5030010;28;19925;-91
2022/04/15 10:39:22;;;;;;;;;;;;;;;12.75;77.84;100929.16;5030603;28;20274;-91
2022/04/15 10:41:48;;;;;;;;;;;;;;;12.75;77.54;100921.97;5046936;28;20004;-91
2022/04/15 10:44:22;;;;;;;;;;;;;;;12.78;78.12;100927.09;5030435;28;20059;-91
2022/04/15 10:46:47;;;;;;;;;;;;;;;12.76;77.61;100917.44;5029796;28;19928;-91
2022/04/15 10:49:23;;;;;;;;;;;;;;;12.72;77.40;100918.69;5030283;28;19921;-91
2022/04/15 10:51:50;;;;;;;;;;;;;;;12.56;77.44;100929.84;5047226;28;19925;-91
2022/04/15 10:54:28;;;;;;;;;;;;;;;12.71;77.48;100916.97;5046439;28;20158;-91
2022/04/15 10:56:59;;;;;;;;;;;;;;;12.79;77.06;100910.00;5046873;28;19987;-92
2022/04/15 11:02:15;;;;;;;;;;;;;;;12.86;76.63;100915.72;5044778;28;20557;-91
2022/04/15 11:04:42;;;;;;;;;;;;;;;12.83;76.30;100916.81;5030200;28;19913;-91
2022/04/15 11:07:14;;;;;;;;;;;;;;;12.92;76.57;100910.69;5029506;28;20035;-91
2022/04/15 11:09:39;;;;;;;;;;;;;;;13.04;76.55;100910.63;5029665;28;19923;-91
2022/04/15 11:12:06;;;;;;;;;;;;;;;12.95;76.15;100904.19;5029703;28;19921;-91
2022/04/15 11:14:32;;;;;;;;;;;;;;;12.89;76.64;100910.09;5029473;28;19924;-91
2022/04/15 11:16:58;;;;;;;;;;;;;;;12.95;76.00;100917.63;5029368;28;19928;-91
2022/04/15 11:19:24;;;;;;;;;;;;;;;12.83;75.95;100921.34;5029798;28;19916;-91
2022/04/15 11:21:53;;;;;;;;;;;;;;;12.80;76.67;100910.88;5029281;28;20334;-92
2022/04/15 11:24:30;;;;;;;;;;;;;;;12.86;77.07;100921.09;5029551;28;20059;-91
2022/04/15 11:26:56;;;;;;;;;;;;;;;12.93;75.97;100923.13;5028938;28;19917;-91
2022/04/15 11:29:22;;;;;;;;;;;;;;;13.02;76.06;100929.53;5046273;28;19921;-91
2022/04/15 11:31:51;;;;;;;;;;;;;;;12.99;76.25;100920.91;5029311;28;19928;-91
2022/04/15 11:34:17;;;;;;;;;;;;;;;12.99;75.23;100926.25;5046199;28;19972;-91
2022/04/15 11:36:44;;;;;;;;;;;;;;;13.06;75.42;100916.72;5028973;28;19952;-91
2022/04/15 11:39:11;;;;;;;;;;;;;;;13.11;75.21;100917.16;5029222;28;19976;-91
2022/04/15 11:41:41;;;;;;;;;;;;;;;13.11;74.34;100911.78;5029078;28;20254;-91
2022/04/15 11:44:07;;;;;;;;;;;;;;;13.28;75.01;100915.78;5029135;28;19947;-91
2022/04/15 11:46:35;;;;;;;;;;;;;;;13.42;74.96;100910.06;5045502;28;19924;-91
2022/04/15 11:49:00;;;;;;;;;;;;;;;13.50;74.19;100911.09;5028976;28;19924;-91
2022/04/15 11:51:25;;;;;;;;;;;;;;;13.34;72.90;100905.34;5029154;28;19917;-91
2022/04/15 11:53:51;;;;;;;;;;;;;;;13.27;72.90;100906.88;5028729;28;19916;-91
2022/04/15 11:56:16;;;;;;;;;;;;;;;13.30;72.99;100909.28;5029464;28;19921;-91
2022/04/15 11:58:43;;;;;;;;;;;;;;;13.44;73.08;100902.72;5028480;28;19917;-91
2022/04/15 12:01:08;;;;;;;;;;;;;;;13.45;72.84;100901.75;5028984;28;20520;-92
2022/04/15 12:03:33;;;;;;;;;;;;;;;13.48;72.88;100896.94;5028888;28;19920;-91
2022/04/15 12:05:59;;;;;;;;;;;;;;;13.46;72.51;100901.59;5028640;28;20038;-91
2022/04/15 12:08:24;;;;;;;;;;;;;;;13.52;72.66;100898.38;5028329;28;20362;-91
2022/04/15 12:10:49;;;;;;;;;;;;;;;13.55;72.69;100895.44;5028590;28;19917;-91
2022/04/15 12:13:15;;;;;;;;;;;;;;;13.57;72.40;100902.50;5028866;28;19917;-91
2022/04/15 12:15:40;;;;;;;;;;;;;;;13.44;72.31;100902.72;5028585;28;20262;-91
2022/04/15 12:18:06;;;;;;;;;;;;;;;13.45;72.56;100896.38;5028156;28;20008;-91
2022/04/15 12:20:32;;;;;;;;;;;;;;;13.54;72.77;100895.56;5045117;28;20011;-92
2022/04/15 12:22:58;;;;;;;;;;;;;;;13.59;72.38;100892.47;5028480;28;20059;-91
2022/04/15 12:25:23;;;;;;;;;;;;;;;13.59;71.64;100896.00;5028170;28;20011;-91
2022/04/15 12:27:49;;;;;;;;;;;;;;;13.65;71.77;100886.56;5027712;28;19913;-91
2022/04/15 12:30:17;;;;;;;;;;;;;;;13.75;71.89;100890.16;5028189;28;19917;-91
2022/04/15 12:32:44;;;;;;;;;;;;;;;13.75;71.31;100887.47;5028220;28;19943;-91
2022/04/15 12:35:12;;;;;;;;;;;;;;;13.69;71.48;100890.66;5027556;28;19928;-91